Garrisonville, Virginia
Current Conditions -  °F | °C
As of 11:55 PM on Wednesday 22 Oct 2014 (Local Time) from KRMN Reporting Station
Scattered Clouds Scattered Clouds  
Wind Chill: 51°   Ceiling: Unl
Heat Index: 51°   Visibility: 10mi
Dew Point: 41°   Wind: 12mph
Humidity: 69%   Direction: 320°NW
Pressure: 30"   Gusts: 20mph
Location:  38.48°N, 77.43°W
Report Text: KRMN 230355Z AUTO 32010G17KT 10SM SCT044 11/05 A3000 RMK AO2 T01060051
Loading
Personal Weather Stations






























Interactive Weather Map
Tropical Storm Tracking
New forecast layout! Learn more

10-Day Weather Forecast

Advertisements
Track Severe Weather on mobile